Time;durP1;ratioP1;P1;durP2;ratioP2;P2;SDS_P1;SDS_P2;PMS_P1;PMS_P2;Temp;Humidity;BMP_temperature;BMP_pressure;BME280_temperature;BME280_humidity;BME280_pressure;Samples;Min_cycle;Max_cycle;Signal;HPM_P1;HPM_P2
2022/07/09 00:00:48;;;;;;;9.68;7.40;;;;;;;15.56;89.67;102802.41;5073446;28;20042;-71
2022/07/09 00:03:14;;;;;;;11.43;8.63;;;;;;;15.50;90.47;102803.38;5072288;28;20438;-71
2022/07/09 00:05:39;;;;;;;10.80;8.35;;;;;;;15.42;90.82;102798.19;5065560;28;20043;-71
2022/07/09 00:08:04;;;;;;;12.43;8.18;;;;;;;15.42;90.84;102802.59;5074496;28;20046;-71
2022/07/09 00:10:30;;;;;;;12.05;8.98;;;;;;;15.38;91.05;102791.25;5074774;28;20063;-71
2022/07/09 00:12:56;;;;;;;16.33;9.18;;;;;;;15.40;91.29;102793.84;5073361;28;20643;-71
2022/07/09 00:15:21;;;;;;;13.27;9.45;;;;;;;15.35;91.54;102806.19;5063830;28;20029;-71
2022/07/09 00:17:46;;;;;;;11.10;9.40;;;;;;;15.31;92.05;102796.59;5073223;28;20020;-71
2022/07/09 00:20:12;;;;;;;12.23;9.88;;;;;;;15.20;92.56;102789.72;5073834;28;20020;-71
2022/07/09 00:22:37;;;;;;;12.45;9.45;;;;;;;15.13;92.93;102793.28;5073316;28;20031;-71
2022/07/09 00:25:03;;;;;;;13.38;9.20;;;;;;;15.10;93.16;102801.19;5072237;28;20532;-71
2022/07/09 00:27:28;;;;;;;11.48;8.98;;;;;;;15.13;93.38;102798.53;5073735;28;20098;-71
2022/07/09 00:29:53;;;;;;;12.30;9.10;;;;;;;15.17;92.87;102794.13;5073919;28;20381;-71
2022/07/09 00:32:18;;;;;;;12.05;9.30;;;;;;;15.12;92.81;102794.19;5073869;28;20429;-71
2022/07/09 00:34:44;;;;;;;15.52;10.15;;;;;;;15.08;92.88;102794.25;5072413;28;20043;-71
2022/07/09 00:37:10;;;;;;;12.25;9.60;;;;;;;15.03;93.35;102791.66;5070805;28;20020;-71
2022/07/09 00:39:35;;;;;;;15.00;10.45;;;;;;;15.01;93.55;102790.81;5071319;28;20028;-71
2022/07/09 00:42:12;;;;;;;13.00;9.45;;;;;;;14.97;93.78;102789.09;5074058;28;20023;-71
2022/07/09 00:44:38;;;;;;;15.45;11.20;;;;;;;14.95;94.07;102791.75;5071980;28;20043;-71
2022/07/09 00:47:06;;;;;;;13.02;10.50;;;;;;;14.86;94.21;102783.09;5069405;28;20029;-71
2022/07/09 00:49:35;;;;;;;14.63;11.50;;;;;;;14.83;94.59;102793.63;5060193;28;20042;-71
2022/07/09 00:52:00;;;;;;;13.80;11.43;;;;;;;14.82;94.63;102797.16;5072596;28;20036;-71
2022/07/09 00:54:26;;;;;;;13.57;10.40;;;;;;;14.77;94.83;102786.66;5072411;28;20021;-71
2022/07/09 00:56:53;;;;;;;15.93;12.68;;;;;;;14.75;95.26;102796.34;5073541;28;20032;-71
2022/07/09 00:59:18;;;;;;;14.40;12.35;;;;;;;14.69;95.55;102794.63;5073541;28;20528;-71
2022/07/09 01:01:43;;;;;;;15.32;12.10;;;;;;;14.69;95.87;102788.53;5072450;28;20037;-71
2022/07/09 01:04:09;;;;;;;14.02;12.57;;;;;;;14.68;95.70;102795.53;5073233;28;20031;-71
2022/07/09 01:06:34;;;;;;;15.52;13.23;;;;;;;14.67;95.78;102785.91;5072756;28;20112;-71
2022/07/09 01:09:01;;;;;;;17.05;14.80;;;;;;;14.65;95.74;102782.44;5072580;28;20016;-71
2022/07/09 01:11:26;;;;;;;15.52;13.80;;;;;;;14.63;96.04;102788.56;5073777;28;20024;-71
2022/07/09 01:13:51;;;;;;;17.35;14.95;;;;;;;14.59;95.99;102792.97;5069674;28;20117;-71
2022/07/09 01:16:17;;;;;;;15.80;14.10;;;;;;;14.53;96.28;102782.53;5059153;28;20024;-71
2022/07/09 01:18:46;;;;;;;18.88;14.73;;;;;;;14.50;96.84;102778.19;5056330;28;20437;-71
2022/07/09 01:21:15;;;;;;;17.08;14.68;;;;;;;14.42;96.92;102769.50;5060349;28;20122;-71
2022/07/09 01:23:40;;;;;;;19.98;15.27;;;;;;;14.43;97.08;102775.59;5069241;28;20107;-71
2022/07/09 01:26:06;;;;;;;20.25;15.20;;;;;;;14.40;97.46;102773.00;5073259;28;20107;-71
2022/07/09 01:28:31;;;;;;;18.88;14.77;;;;;;;14.45;97.73;102768.56;5072423;28;20515;-71
2022/07/09 01:30:57;;;;;;;18.92;14.60;;;;;;;14.46;97.10;102762.44;5072660;28;20086;-71
2022/07/09 01:33:22;;;;;;;17.98;13.75;;;;;;;14.42;96.83;102760.72;5057974;28;20060;-71
2022/07/09 01:35:48;;;;;;;17.77;14.57;;;;;;;14.36;96.96;102751.16;5071761;28;20117;-71
2022/07/09 01:38:13;;;;;;;17.52;15.63;;;;;;;14.32;97.29;102751.19;5063767;28;20504;-71
2022/07/09 01:40:38;;;;;;;18.65;15.10;;;;;;;14.27;97.32;102752.09;5072967;28;20064;-71
2022/07/09 01:43:04;;;;;;;20.00;15.32;;;;;;;14.27;97.49;102748.63;5070829;28;20025;-71
2022/07/09 01:45:29;;;;;;;21.92;15.48;;;;;;;14.24;97.82;102746.03;5058382;28;20029;-71
2022/07/09 01:47:54;;;;;;;17.90;15.13;;;;;;;14.19;98.24;102751.31;5062778;28;20048;-71
2022/07/09 01:50:20;;;;;;;20.08;16.10;;;;;;;14.15;98.44;102751.34;5057730;28;20453;-71
2022/07/09 01:52:45;;;;;;;19.92;16.40;;;;;;;14.16;98.74;102750.44;5071996;28;20032;-71
2022/07/09 01:55:10;;;;;;;17.83;15.90;;;;;;;14.16;98.53;102745.19;5071692;28;20082;-71
2022/07/09 01:57:36;;;;;;;22.40;15.43;;;;;;;14.16;98.44;102739.94;5071587;28;20035;-72
2022/07/09 02:00:03;;;;;;;18.77;15.95;;;;;;;14.24;97.74;102743.41;5072542;28;20150;-71
2022/07/09 02:02:29;;;;;;;20.23;16.02;;;;;;;14.21;97.77;102741.66;5072606;28;20047;-71
2022/07/09 02:04:54;;;;;;;18.25;16.27;;;;;;;14.19;97.61;102743.44;5069109;28;20468;-72
2022/07/09 02:07:20;;;;;;;19.20;16.33;;;;;;;14.18;97.77;102740.81;5072637;28;20027;-71
2022/07/09 02:09:45;;;;;;;20.60;15.60;;;;;;;14.07;98.08;102732.19;5071344;28;20039;-71
2022/07/09 02:12:10;;;;;;;21.50;17.52;;;;;;;14.08;98.01;102739.16;5071013;28;20028;-71
2022/07/09 02:14:36;;;;;;;20.63;16.88;;;;;;;14.02;98.51;102732.19;5069613;28;20483;-71
2022/07/09 02:17:01;;;;;;;20.30;17.30;;;;;;;13.96;98.91;102737.50;5072246;28;20430;-71
2022/07/09 02:19:26;;;;;;;21.92;16.05;;;;;;;13.94;98.86;102729.66;5071397;28;20023;-71
2022/07/09 02:21:51;;;;;;;18.35;15.18;;;;;;;13.94;98.75;102740.13;5071770;28;20028;-71
2022/07/09 02:24:17;;;;;;;19.00;16.98;;;;;;;13.95;99.01;102733.13;5058620;28;20028;-71
2022/07/09 02:26:42;;;;;;;19.55;16.42;;;;;;;13.93;99.16;102737.50;5070562;28;20430;-71
2022/07/09 02:29:07;;;;;;;18.60;16.60;;;;;;;13.88;99.32;102728.81;5070860;28;20064;-71
2022/07/09 02:31:33;;;;;;;19.77;16.73;;;;;;;13.88;99.29;102723.59;5071122;28;20059;-71
2022/07/09 02:33:58;;;;;;;19.40;17.33;;;;;;;13.88;99.67;102734.06;5070812;28;20031;-71
2022/07/09 02:36:24;;;;;;;24.05;18.13;;;;;;;13.86;99.86;102730.56;5067250;28;20074;-71
2022/07/09 02:38:49;;;;;;;21.75;17.48;;;;;;;13.82;99.87;102722.72;5070015;28;20319;-71
2022/07/09 02:41:14;;;;;;;21.27;17.17;;;;;;;13.73;100.00;102725.44;5072200;28;20028;-71
2022/07/09 02:43:43;;;;;;;20.52;17.77;;;;;;;13.75;99.85;102728.03;5071756;28;20025;-71
2022/07/09 02:46:09;;;;;;;20.33;18.13;;;;;;;13.70;100.00;102725.47;5063205;28;20047;-71
2022/07/09 02:48:34;;;;;;;22.15;18.75;;;;;;;13.66;100.00;102723.72;5071458;28;20096;-71
2022/07/09 02:51:00;;;;;;;22.02;18.58;;;;;;;13.64;100.00;102725.50;5071597;28;20113;-71
2022/07/09 02:53:25;;;;;;;24.10;17.77;;;;;;;13.58;100.00;102715.03;5066849;28;20033;-71
2022/07/09 02:55:50;;;;;;;24.05;17.52;;;;;;;13.50;100.00;102704.59;5069965;28;20043;-71
2022/07/09 02:58:16;;;;;;;19.30;17.30;;;;;;;13.56;100.00;102716.78;5071769;28;20055;-71
2022/07/09 03:00:41;;;;;;;21.52;18.05;;;;;;;13.52;100.00;102710.69;5070628;28;20024;-71
2022/07/09 03:03:07;;;;;;;24.45;18.73;;;;;;;13.49;100.00;102709.84;5071573;28;20115;-71
2022/07/09 03:05:33;;;;;;;21.58;18.30;;;;;;;13.43;100.00;102700.28;5069521;28;20029;-71
2022/07/09 03:07:58;;;;;;;28.92;19.23;;;;;;;13.47;100.00;102716.84;5070528;28;20387;-71
2022/07/09 03:10:24;;;;;;;25.85;18.88;;;;;;;13.49;100.00;102702.00;5071742;28;20032;-71
2022/07/09 03:12:49;;;;;;;24.35;19.55;;;;;;;13.48;100.00;102713.38;5070465;28;20461;-71
2022/07/09 03:15:16;;;;;;;23.00;19.52;;;;;;;13.45;100.00;102722.09;5069795;28;20040;-71
2022/07/09 03:17:42;;;;;;;25.50;19.73;;;;;;;13.39;100.00;102716.03;5062510;28;20107;-71
2022/07/09 03:20:08;;;;;;;27.15;20.48;;;;;;;13.32;100.00;102708.19;5071907;28;20032;-71
2022/07/09 03:22:34;;;;;;;27.27;21.48;;;;;;;13.25;100.00;102703.00;5070658;28;20066;-71
2022/07/09 03:24:59;;;;;;;21.85;19.52;;;;;;;13.24;100.00;102709.06;5052978;28;20021;-71
2022/07/09 03:27:24;;;;;;;27.55;22.63;;;;;;;13.24;100.00;102704.75;5062625;28;20455;-71
2022/07/09 03:29:50;;;;;;;28.60;22.40;;;;;;;13.24;100.00;102707.38;5070194;28;20070;-71
2022/07/09 03:32:15;;;;;;;30.25;22.13;;;;;;;13.27;100.00;102712.56;5070397;28;20031;-71
2022/07/09 03:34:40;;;;;;;28.40;22.27;;;;;;;13.29;100.00;102716.06;5069409;28;20396;-71
2022/07/09 03:37:06;;;;;;;27.52;22.80;;;;;;;13.25;100.00;102703.88;5058943;28;20107;-71
2022/07/09 03:39:31;;;;;;;31.55;23.45;;;;;;;13.32;100.00;102716.06;5070710;28;20387;-71
2022/07/09 03:41:56;;;;;;;28.95;23.88;;;;;;;13.32;100.00;102709.94;5069993;28;20028;-71
2022/07/09 03:44:22;;;;;;;31.77;23.55;;;;;;;13.29;100.00;102708.22;5071439;28;20032;-71
2022/07/09 03:46:47;;;;;;;28.45;23.67;;;;;;;13.32;100.00;102709.94;5068654;28;20025;-71
2022/07/09 03:49:12;;;;;;;30.90;24.33;;;;;;;13.35;100.00;102708.19;5062129;28;20030;-71
2022/07/09 03:51:38;;;;;;;28.48;22.98;;;;;;;13.41;100.00;102716.91;5069237;28;20036;-71
2022/07/09 03:54:03;;;;;;;30.77;25.48;;;;;;;13.38;100.00;102714.28;5071161;28;20032;-71
2022/07/09 03:56:29;;;;;;;27.52;24.05;;;;;;;13.41;100.00;102716.91;5068772;28;20044;-72
2022/07/09 03:58:54;;;;;;;27.48;22.50;;;;;;;13.39;100.00;102718.66;5073197;28;20562;-71
2022/07/09 04:01:19;;;;;;;29.23;23.73;;;;;;;13.43;100.00;102715.13;5074004;28;20111;-71
2022/07/09 04:03:45;;;;;;;31.15;25.17;;;;;;;13.49;100.00;102707.22;5073338;28;20491;-71
2022/07/09 04:06:11;;;;;;;31.23;25.38;;;;;;;13.61;100.00;102704.53;5073265;28;20051;-71
2022/07/09 04:08:36;;;;;;;33.42;25.92;;;;;;;13.75;100.00;102707.94;5074552;28;20020;-71
2022/07/09 04:11:01;;;;;;;28.80;24.15;;;;;;;13.84;100.00;102706.13;5073748;28;20499;-71
2022/07/09 04:13:27;;;;;;;35.28;26.67;;;;;;;13.84;100.00;102706.13;5066170;28;20024;-71
2022/07/09 04:15:52;;;;;;;34.58;25.67;;;;;;;13.81;100.00;102701.78;5065445;28;20036;-71
2022/07/09 04:18:17;;;;;;;33.40;26.00;;;;;;;13.74;100.00;102694.84;5073044;28;20036;-71
2022/07/09 04:20:43;;;;;;;36.60;26.95;;;;;;;13.77;100.00;102705.31;5073367;28;20047;-71
2022/07/09 04:23:09;;;;;;;35.22;26.80;;;;;;;13.80;100.00;102707.91;5068820;28;20035;-71
2022/07/09 04:25:35;;;;;;;32.20;25.95;;;;;;;13.81;100.00;102707.03;5057172;28;20017;-71
2022/07/09 04:28:01;;;;;;;35.90;27.88;;;;;;;13.79;100.00;102699.16;5071038;28;20028;-71
2022/07/09 04:30:27;;;;;;;35.05;27.50;;;;;;;13.77;100.00;102686.97;5074502;28;20115;-71
2022/07/09 04:32:52;;;;;;;36.30;27.85;;;;;;;13.78;100.00;102696.56;5072943;28;20029;-71
2022/07/09 04:35:17;;;;;;;34.60;27.80;;;;;;;13.81;100.00;102688.69;5073395;28;20052;-71
2022/07/09 04:37:43;;;;;;;40.53;27.85;;;;;;;13.90;100.00;102693.00;5074233;28;20108;-71
2022/07/09 04:40:09;;;;;;;40.28;29.83;;;;;;;13.99;100.00;102690.25;5073423;28;20063;-71
2022/07/09 04:42:34;;;;;;;44.58;31.52;;;;;;;14.05;100.00;102696.31;5074045;28;20362;-71
2022/07/09 04:45:00;;;;;;;39.33;29.92;;;;;;;14.12;100.00;102691.03;5073905;28;20032;-71
2022/07/09 04:47:25;;;;;;;43.67;31.10;;;;;;;14.15;100.00;102689.25;5063677;28;20027;-71
2022/07/09 04:49:50;;;;;;;41.80;31.50;;;;;;;14.19;100.00;102688.38;5072591;28;20093;-71
2022/07/09 04:52:19;;;;;;;43.45;31.85;;;;;;;14.38;100.00;102689.03;5073599;28;20081;-71
2022/07/09 04:54:45;;;;;;;41.78;32.70;;;;;;;14.59;100.00;102693.25;5072481;28;20032;-71
2022/07/09 04:57:10;;;;;;;45.90;32.88;;;;;;;14.75;100.00;102688.69;5068085;28;20366;-71
2022/07/09 04:59:35;;;;;;;43.75;32.58;;;;;;;14.89;100.00;102691.16;5072796;28;20051;-71
2022/07/09 05:02:01;;;;;;;46.20;34.08;;;;;;;14.98;100.00;102701.56;5073410;28;20104;-71
2022/07/09 05:04:26;;;;;;;43.85;33.38;;;;;;;15.12;100.00;102686.47;5074048;28;20021;-71
2022/07/09 05:06:51;;;;;;;44.08;33.13;;;;;;;15.22;100.00;102693.34;5066277;28;20623;-72
2022/07/09 05:09:17;;;;;;;45.38;34.22;;;;;;;15.35;99.97;102687.94;5072523;28;20029;-71
2022/07/09 05:11:42;;;;;;;44.40;34.15;;;;;;;15.43;100.00;102680.78;5073569;28;20024;-71
2022/07/09 05:14:07;;;;;;;48.92;35.28;;;;;;;15.49;100.00;102683.31;5071638;28;20039;-71
2022/07/09 05:16:32;;;;;;;42.03;32.38;;;;;;;15.54;99.64;102691.16;5072168;28;20123;-71
2022/07/09 05:18:57;;;;;;;50.25;36.33;;;;;;;15.54;100.00;102681.50;5072512;28;20029;-71
2022/07/09 05:21:24;;;;;;;45.85;36.95;;;;;;;15.60;100.00;102681.44;5071820;28;20129;-71
2022/07/09 05:23:49;;;;;;;47.05;35.53;;;;;;;15.65;100.00;102686.59;5062566;28;20029;-71
2022/07/09 05:26:14;;;;;;;47.42;34.58;;;;;;;15.77;99.75;102688.22;5065216;28;20047;-71
2022/07/09 05:28:39;;;;;;;48.78;35.45;;;;;;;15.91;99.17;102691.47;5068706;28;20024;-71
2022/07/09 05:31:05;;;;;;;44.05;33.58;;;;;;;16.03;99.10;102679.91;5072053;28;20029;-71
2022/07/09 05:33:32;;;;;;;45.72;34.03;;;;;;;16.16;98.38;102678.78;5072755;28;20016;-71
2022/07/09 05:35:58;;;;;;;47.75;35.50;;;;;;;16.28;97.91;102680.31;5068916;28;20024;-71
2022/07/09 05:38:23;;;;;;;45.03;34.35;;;;;;;16.38;97.96;102687.13;5069379;28;20031;-71
2022/07/09 05:40:48;;;;;;;42.22;31.63;;;;;;;16.45;97.04;102685.25;5072533;28;20035;-71
2022/07/09 05:43:13;;;;;;;45.80;33.78;;;;;;;16.47;97.11;102686.97;5072230;28;20031;-71
2022/07/09 05:45:39;;;;;;;41.38;32.88;;;;;;;16.54;95.81;102685.09;5072644;28;20434;-71
2022/07/09 05:48:04;;;;;;;42.78;31.75;;;;;;;16.58;95.04;102679.75;5064527;28;20039;-71
2022/07/09 05:50:29;;;;;;;37.45;31.20;;;;;;;16.68;95.32;102679.59;5067969;28;20445;-71
2022/07/09 05:52:55;;;;;;;38.60;30.38;;;;;;;16.72;95.87;102673.34;5064350;28;20111;-71
2022/07/09 05:55:20;;;;;;;39.30;30.35;;;;;;;16.79;95.00;102669.72;5072760;28;20103;-72
2022/07/09 05:57:46;;;;;;;35.58;29.33;;;;;;;16.80;93.60;102668.81;5070515;28;20033;-72
2022/07/09 06:00:11;;;;;;;37.53;29.52;;;;;;;16.75;94.96;102668.06;5071825;28;20035;-71
2022/07/09 06:02:37;;;;;;;36.75;29.63;;;;;;;16.77;95.27;102675.00;5071768;28;20013;-72
2022/07/09 06:05:03;;;;;;;34.58;28.13;;;;;;;16.81;95.47;102675.84;5072504;28;20118;-71
2022/07/09 06:07:28;;;;;;;37.38;28.52;;;;;;;16.87;95.22;102680.94;5070571;28;20059;-71
2022/07/09 06:09:53;;;;;;;37.25;28.88;;;;;;;16.92;95.14;102679.09;5071434;28;20031;-71
2022/07/09 06:12:18;;;;;;;34.05;28.33;;;;;;;17.00;95.04;102673.66;5072421;28;20023;-71
2022/07/09 06:14:44;;;;;;;34.38;27.30;;;;;;;17.08;93.46;102680.50;5071824;28;20523;-72
2022/07/09 06:17:09;;;;;;;36.85;27.95;;;;;;;17.23;94.10;102683.69;5068755;28;20032;-72
2022/07/09 06:19:35;;;;;;;32.45;27.90;;;;;;;17.39;92.15;102676.31;5060595;28;20032;-71
2022/07/09 06:22:01;;;;;;;36.63;28.48;;;;;;;17.50;91.49;102684.88;5071315;28;20349;-71
2022/07/09 06:24:26;;;;;;;33.53;27.40;;;;;;;17.74;91.67;102686.91;5057413;28;20071;-71
2022/07/09 06:26:52;;;;;;;32.85;26.88;;;;;;;18.02;91.41;102676.59;5062992;28;20037;-71
2022/07/09 06:29:17;;;;;;;35.25;26.33;;;;;;;18.34;88.87;102677.50;5068457;28;20447;-72
2022/07/09 06:31:43;;;;;;;35.15;27.23;;;;;;;18.47;87.76;102678.03;5070951;28;20456;-72
2022/07/09 06:34:10;;;;;;;32.63;25.50;;;;;;;18.47;88.49;102684.19;5072227;28;20032;-71
2022/07/09 06:36:35;;;;;;;31.67;24.83;;;;;;;18.45;86.68;102678.09;5070631;28;20090;-71
2022/07/09 06:41:44;;;;;;;30.75;24.83;;;;;;;18.57;86.76;102686.56;5071737;28;20115;-72
2022/07/09 06:44:09;;;;;;;31.40;23.52;;;;;;;18.61;86.91;102680.31;5070558;28;20052;-72
2022/07/09 06:46:35;;;;;;;32.67;25.67;;;;;;;18.65;85.22;102682.81;5069619;28;20029;-71
2022/07/09 06:49:01;;;;;;;28.75;23.27;;;;;;;18.66;85.83;102699.53;5070752;28;20025;-72
2022/07/09 06:51:26;;;;;;;35.90;24.15;;;;;;;18.66;87.17;102695.09;5063046;28;20028;-72
2022/07/09 06:53:51;;;;;;;30.65;24.27;;;;;;;18.53;86.92;102692.84;5069575;28;20155;-71
2022/07/09 06:56:16;;;;;;;31.95;25.48;;;;;;;18.39;88.19;102687.94;5071797;28;20115;-71
2022/07/09 06:58:42;;;;;;;33.35;25.55;;;;;;;18.27;87.92;102694.41;5064681;28;20051;-72
2022/07/09 07:01:07;;;;;;;32.20;24.85;;;;;;;18.18;88.88;102684.09;5070119;28;20028;-72
2022/07/09 07:03:32;;;;;;;30.88;24.13;;;;;;;18.19;89.49;102678.78;5071521;28;20449;-72
2022/07/09 07:05:57;;;;;;;31.05;24.92;;;;;;;18.28;88.87;102680.31;5069240;28;20032;-71
2022/07/09 07:08:23;;;;;;;34.20;25.00;;;;;;;18.38;88.28;102684.44;5070827;28;20441;-71
2022/07/09 07:10:48;;;;;;;31.02;23.88;;;;;;;18.42;88.07;102699.28;5070206;28;20025;-71
2022/07/09 07:13:13;;;;;;;30.08;23.30;;;;;;;18.49;88.58;102698.22;5070890;28;20028;-72
2022/07/09 07:15:39;;;;;;;29.70;22.20;;;;;;;18.61;88.45;102685.59;5061036;28;20055;-72
2022/07/09 07:18:04;;;;;;;29.40;23.42;;;;;;;18.63;86.89;102686.41;5071527;28;20423;-72
2022/07/09 07:20:29;;;;;;;26.40;22.63;;;;;;;18.59;86.72;102697.97;5071002;28;20029;-72
2022/07/09 07:22:54;;;;;;;30.00;21.85;;;;;;;18.61;88.73;102696.16;5067062;28;20468;-72
2022/07/09 07:25:20;;;;;;;29.00;22.00;;;;;;;18.67;86.39;102675.72;5063394;28;20109;-72
2022/07/09 07:27:45;;;;;;;26.65;19.50;;;;;;;18.78;87.70;102678.09;5076365;28;20380;-71
2022/07/09 07:30:11;;;;;;;27.63;20.20;;;;;;;18.89;85.46;102681.25;5071664;28;20028;-71
2022/07/09 07:32:36;;;;;;;24.95;19.55;;;;;;;18.89;85.03;102675.13;5073546;28;20024;-71
2022/07/09 07:35:02;;;;;;;26.23;20.88;;;;;;;19.03;84.27;102677.34;5074412;28;20024;-72
2022/07/09 07:37:28;;;;;;;26.20;20.05;;;;;;;19.12;86.40;102685.88;5075560;28;20032;-72
2022/07/09 07:39:53;;;;;;;23.27;20.10;;;;;;;19.32;84.55;102679.97;5071583;28;20029;-72
2022/07/09 07:42:18;;;;;;;26.40;20.60;;;;;;;19.46;82.55;102681.34;5077571;28;20039;-72
2022/07/09 07:44:43;;;;;;;24.30;18.70;;;;;;;19.64;83.91;102680.78;5076749;28;20048;-72
2022/07/09 07:47:09;;;;;;;25.90;20.00;;;;;;;19.84;82.46;102688.91;5063262;28;20029;-72
2022/07/09 07:49:34;;;;;;;26.50;18.25;;;;;;;19.75;81.21;102678.66;5059123;28;20060;-72
2022/07/09 07:51:59;;;;;;;25.25;18.13;;;;;;;19.78;80.59;102693.53;5073987;28;20096;-72
2022/07/09 07:54:25;;;;;;;23.92;19.27;;;;;;;19.94;79.60;102688.63;5073575;28;20100;-72
2022/07/09 07:56:50;;;;;;;26.60;20.30;;;;;;;20.06;77.96;102678.47;5072170;28;20024;-77
2022/07/09 07:59:17;;;;;;;18.48;16.35;;;;;;;20.33;77.89;102689.88;5075424;28;20047;-78
2022/07/09 08:01:42;;;;;;;22.73;18.30;;;;;;;20.61;76.61;102691.59;5074544;28;20498;-78
2022/07/09 08:04:08;;;;;;;24.63;19.75;;;;;;;21.07;74.79;102681.06;5071983;28;20153;-78
2022/07/09 08:06:35;;;;;;;25.58;19.65;;;;;;;21.42;73.62;102677.91;5065916;28;20047;-78
2022/07/09 08:09:01;;;;;;;20.35;16.92;;;;;;;21.55;74.30;102677.41;5062376;28;20024;-78
2022/07/09 08:11:26;;;;;;;18.02;15.85;;;;;;;21.68;74.65;102681.28;5064553;28;20073;-79
2022/07/09 08:13:51;;;;;;;25.83;20.00;;;;;;;21.67;71.60;102683.06;5072035;28;20040;-78
2022/07/09 08:16:17;;;;;;;26.55;20.25;;;;;;;21.71;70.67;102665.22;5077637;28;20489;-78
2022/07/09 08:18:42;;;;;;;24.30;19.73;;;;;;;21.69;71.87;102667.09;5080368;28;20028;-79
2022/07/09 08:21:07;;;;;;;23.33;18.90;;;;;;;22.00;69.13;102664.00;5072309;28;20028;-78
2022/07/09 08:23:50;;;;;;;24.77;20.27;;;;;;;22.06;69.69;102661.09;5065533;28;20096;-78
2022/07/09 08:26:16;;;;;;;23.77;18.42;;;;;;;22.07;70.25;102656.63;5071602;28;20160;-78
2022/07/09 08:28:41;;;;;;;21.65;18.92;;;;;;;22.03;68.77;102639.13;5073945;28;20078;-78
2022/07/09 08:31:07;;;;;;;23.25;18.15;;;;;;;22.25;68.42;102655.03;5073496;28;20487;-78
2022/07/09 08:33:32;;;;;;;24.92;18.50;;;;;;;22.33;68.59;102656.38;5074384;28;20026;-78
2022/07/09 08:35:57;;;;;;;22.25;18.38;;;;;;;22.27;67.67;102655.81;5074757;28;20033;-79
2022/07/09 08:38:23;;;;;;;21.63;18.65;;;;;;;22.23;67.20;102659.53;5073608;28;20029;-78
2022/07/09 08:40:48;;;;;;;22.75;17.80;;;;;;;22.19;67.45;102645.53;5073703;28;20020;-78
2022/07/09 08:43:14;;;;;;;21.45;17.05;;;;;;;22.42;68.21;102631.22;5073265;28;20103;-78
2022/07/09 08:45:43;;;;;;;21.65;18.13;;;;;;;22.78;65.99;102633.13;5066895;28;20091;-78
2022/07/09 08:48:08;;;;;;;22.00;17.20;;;;;;;22.73;66.93;102635.16;5074137;28;20016;-78
2022/07/09 08:50:35;;;;;;;19.88;16.20;;;;;;;22.73;67.74;102637.81;5071905;28;20063;-78
2022/07/09 08:53:02;;;;;;;26.13;17.73;;;;;;;22.87;66.44;102635.34;5073095;28;20032;-79
2022/07/09 08:55:28;;;;;;;19.65;16.80;;;;;;;22.98;64.20;102622.44;5071147;28;20036;-78
2022/07/09 08:57:54;;;;;;;22.48;14.43;;;;;;;23.16;66.51;102630.47;5070082;28;20495;-78
2022/07/09 09:00:19;;;;;;;17.38;15.23;;;;;;;23.05;63.92;102631.88;5073188;28;20017;-78
2022/07/09 09:02:44;;;;;;;20.77;13.38;;;;;;;23.06;66.27;102636.25;5074872;28;20025;-78
2022/07/09 09:05:12;;;;;;;18.25;13.82;;;;;;;23.03;63.85;102633.72;5074709;28;20391;-78
2022/07/09 09:07:38;;;;;;;16.63;12.88;;;;;;;23.18;64.60;102628.59;5073931;28;20028;-78
2022/07/09 09:10:03;;;;;;;19.85;15.15;;;;;;;23.49;62.91;102617.31;5079163;28;20024;-78
2022/07/09 09:12:29;;;;;;;19.70;14.73;;;;;;;23.82;61.13;102623.63;5063058;28;20079;-78
2022/07/09 09:14:54;;;;;;;16.77;12.10;;;;;;;;;;5063998;28;20043;-77
2022/07/09 09:17:20;;;;;;;19.30;12.40;;;;;;;23.60;61.27;102633.59;5073604;28;20078;-78
2022/07/09 09:19:45;;;;;;;15.90;12.43;;;;;;;23.40;62.45;102628.41;5082136;28;20479;-78
2022/07/09 09:22:15;;;;;;;16.90;12.77;;;;;;;23.25;63.12;102622.03;5072880;28;20472;-78
2022/07/09 09:24:42;;;;;;;15.57;12.15;;;;;;;23.18;64.28;102628.59;5065130;28;20032;-77
2022/07/09 09:27:07;;;;;;;11.90;10.40;;;;;;;23.45;64.41;102621.94;5072592;28;20029;-78
2022/07/09 09:29:33;;;;;;;16.15;14.13;;;;;;;23.52;62.87;102626.00;5073037;28;20058;-78
2022/07/09 09:32:08;;;;;;;16.42;13.77;;;;;;;23.25;64.67;102616.72;5068156;28;20476;-78
2022/07/09 09:34:35;;;;;;;16.58;14.25;;;;;;;22.98;63.15;102627.75;5071676;28;20112;-78
2022/07/09 09:37:01;;;;;;;20.38;15.43;;;;;;;22.76;65.90;102632.31;5072895;28;20032;-78
2022/07/09 09:39:29;;;;;;;16.50;14.80;;;;;;;22.64;66.40;102625.78;5073368;28;20028;-78
2022/07/09 09:41:59;;;;;;;23.38;15.25;;;;;;;22.86;64.58;102623.00;5069084;28;20439;-77
2022/07/09 09:44:37;;;;;;;20.00;15.05;;;;;;;23.22;66.14;102614.22;5055999;28;20033;-77
2022/07/09 09:47:04;;;;;;;20.80;16.15;;;;;;;23.55;62.85;102615.22;5056780;28;20024;-78
2022/07/09 09:49:29;;;;;;;18.48;16.33;;;;;;;23.58;62.84;102619.53;5052775;28;20024;-78
2022/07/09 09:52:03;;;;;;;20.48;15.40;;;;;;;23.23;64.99;102618.59;5056567;28;20033;-78
2022/07/09 09:54:31;;;;;;;15.85;14.18;;;;;;;22.89;65.81;102628.19;5055418;28;20025;-78
2022/07/09 09:56:58;;;;;;;17.00;14.60;;;;;;;22.46;68.16;102618.66;5052128;28;20017;-78
2022/07/09 09:59:24;;;;;;;21.15;15.88;;;;;;;22.09;68.24;102620.25;5052507;28;20049;-77
2022/07/09 10:01:50;;;;;;;16.35;14.57;;;;;;;21.81;70.31;102623.22;5054434;28;20040;-77
2022/07/09 10:04:15;;;;;;;18.20;15.75;;;;;;;21.44;71.95;102615.03;5059250;28;20021;-77
2022/07/09 10:06:41;;;;;;;18.73;16.85;;;;;;;21.11;72.45;102611.91;5052624;28;20067;-77
2022/07/09 10:09:11;;;;;;;20.80;16.38;;;;;;;20.87;74.39;102615.56;5054568;28;20040;-77
2022/07/09 10:11:42;;;;;;;17.20;15.50;;;;;;;20.73;76.33;102622.25;5054784;28;20029;-77
2022/07/09 10:14:15;;;;;;;20.25;16.35;;;;;;;20.77;75.76;102623.84;5052043;28;20491;-77
2022/07/09 10:16:41;;;;;;;18.30;14.45;;;;;;;21.09;75.44;102627.06;5051458;28;20377;-78
2022/07/09 10:19:06;;;;;;;17.45;13.30;;;;;;;21.74;73.27;102617.31;5051357;28;20021;-77
2022/07/09 10:21:42;;;;;;;16.60;13.77;;;;;;;22.34;69.22;102612.13;5060476;28;20033;-78
2022/07/09 10:24:09;;;;;;;16.60;11.32;;;;;;;23.09;65.95;102611.28;5051512;28;20151;-78
2022/07/09 10:26:49;;;;;;;12.07;10.73;;;;;;;23.60;63.37;102602.50;5070840;28;20025;-78
2022/07/09 10:29:33;;;;;;;14.75;10.55;;;;;;;23.86;63.21;102599.50;5065703;28;20039;-78
2022/07/09 10:31:59;;;;;;;13.80;9.65;;;;;;;23.41;63.81;102607.03;5056938;28;20032;-78
2022/07/09 10:34:30;;;;;;;13.50;9.07;;;;;;;23.42;64.68;102616.75;5066328;28;20040;-78
2022/07/09 10:37:01;;;;;;;11.77;8.10;;;;;;;23.60;63.47;102626.47;5056354;28;20034;-78
2022/07/09 10:39:27;;;;;;;9.48;7.38;;;;;;;23.67;62.98;102624.34;5071226;28;20036;-78
2022/07/09 10:42:03;;;;;;;10.10;6.40;;;;;;;23.87;63.01;102606.53;5071377;28;20452;-78
2022/07/09 10:44:35;;;;;;;8.93;7.25;;;;;;;24.20;59.88;102602.13;5068653;28;20024;-78
2022/07/09 10:47:00;;;;;;;8.05;6.05;;;;;;;24.32;58.94;102605.06;5068514;28;20491;-78
2022/07/09 10:49:27;;;;;;;7.05;6.00;;;;;;;24.30;61.51;102603.34;5065594;28;20059;-78
2022/07/09 10:51:57;;;;;;;9.27;6.70;;;;;;;24.67;61.99;102600.50;5070459;28;20036;-78
2022/07/09 10:54:22;;;;;;;10.25;6.32;;;;;;;25.12;56.17;102601.56;5072241;28;20028;-78
2022/07/09 10:56:48;;;;;;;8.15;5.75;;;;;;;25.37;57.06;102596.50;5070565;28;20028;-78
2022/07/09 10:59:18;;;;;;;6.22;4.38;;;;;;;25.42;55.99;102598.94;5061721;28;20045;-78
2022/07/09 11:01:43;;;;;;;5.18;4.40;;;;;;;25.69;55.82;102596.44;5068809;28;20039;-77
2022/07/09 11:04:08;;;;;;;7.57;3.95;;;;;;;26.01;55.97;102594.53;5071850;28;20016;-78
2022/07/09 11:06:44;;;;;;;5.07;3.60;;;;;;;26.14;53.22;102600.81;5068034;28;20112;-78